Time;durP1;ratioP1;P1;durP2;ratioP2;P2;SDS_P1;SDS_P2;PMS_P1;PMS_P2;Temp;Humidity;BMP_temperature;BMP_pressure;BME280_temperature;BME280_humidity;BME280_pressure;Samples;Min_cycle;Max_cycle;Signal;HPM_P1;HPM_P2
2022/05/20 00:02:14;;;;;;;1.85;1.58;;;23.20;59.80;;;;;;4944360;29;20067;-60
2022/05/20 00:04:39;;;;;;;2.55;1.52;;;23.20;59.70;;;;;;4938109;28;20047;-62
2022/05/20 00:07:06;;;;;;;1.80;1.35;;;23.10;59.60;;;;;;4945258;29;20105;-59
2022/05/20 00:09:31;;;;;;;1.58;1.48;;;23.20;59.70;;;;;;4945061;28;20055;-61
2022/05/20 00:11:57;;;;;;;2.55;1.65;;;23.20;59.70;;;;;;4942599;28;20094;-61
2022/05/20 00:14:23;;;;;;;3.22;1.88;;;23.20;59.90;;;;;;4944972;29;20050;-60
2022/05/20 00:16:48;;;;;;;3.13;1.63;;;23.20;60.10;;;;;;4945720;28;20043;-63
2022/05/20 00:19:14;;;;;;;2.35;1.70;;;23.20;60.20;;;;;;4942136;28;20031;-60
2022/05/20 00:21:40;;;;;;;3.17;1.75;;;23.20;60.20;;;;;;4947992;29;20107;-61
2022/05/20 00:24:05;;;;;;;2.13;1.60;;;23.20;60.10;;;;;;4948137;29;20106;-59
2022/05/20 00:26:31;;;;;;;2.17;1.40;;;23.20;60.20;;;;;;4946229;28;20750;-63
2022/05/20 00:28:57;;;;;;;2.80;1.70;;;23.20;60.10;;;;;;4948951;29;20130;-59
2022/05/20 00:31:24;;;;;;;2.70;1.70;;;23.20;60.00;;;;;;4947025;29;20046;-60
2022/05/20 00:33:50;;;;;;;1.40;1.30;;;23.20;59.90;;;;;;4942240;28;20047;-62
2022/05/20 00:36:17;;;;;;;2.60;1.77;;;23.20;59.70;;;;;;4947997;29;20388;-61
2022/05/20 00:38:42;;;;;;;2.42;1.48;;;23.20;59.70;;;;;;4948966;29;20146;-60
2022/05/20 00:41:09;;;;;;;3.70;1.90;;;23.20;59.50;;;;;;4945285;28;20134;-58
2022/05/20 00:43:37;;;;;;;3.00;1.77;;;23.20;59.50;;;;;;4947112;29;20093;-61
2022/05/20 00:46:11;;;;;;;2.65;1.73;;;23.20;59.40;;;;;;4947257;29;20039;-59
2022/05/20 00:48:38;;;;;;;1.52;1.42;;;23.20;59.30;;;;;;4948263;28;20046;-60
2022/05/20 00:51:28;;;;;;;3.38;1.40;;;23.20;59.30;;;;;;4943560;28;20114;-61
2022/05/20 00:53:59;;;;;;;2.33;1.73;;;23.20;59.20;;;;;;4947130;29;20051;-60
2022/05/20 00:56:33;;;;;;;1.65;1.30;;;23.20;59.20;;;;;;4946956;28;20077;-60
2022/05/20 00:58:59;;;;;;;4.47;1.90;;;23.20;59.20;;;;;;4947497;29;20617;-60
2022/05/20 01:01:26;;;;;;;2.65;1.70;;;23.20;59.20;;;;;;4947856;28;20035;-60
2022/05/20 01:03:53;;;;;;;3.40;1.90;;;23.20;59.20;;;;;;4946989;28;20053;-62
2022/05/20 01:06:19;;;;;;;2.38;1.70;;;23.10;59.80;;;;;;4944824;28;20050;-60
2022/05/20 01:08:44;;;;;;;3.13;1.48;;;23.20;59.10;;;;;;4948177;29;20043;-60
2022/05/20 01:11:10;;;;;;;1.70;1.52;;;23.10;59.00;;;;;;4946490;28;20117;-59
2022/05/20 01:13:36;;;;;;;2.17;1.67;;;23.10;59.00;;;;;;4945590;28;20451;-59
2022/05/20 01:16:08;;;;;;;3.10;1.42;;;23.10;59.00;;;;;;4946988;29;20040;-61
2022/05/20 01:18:39;;;;;;;2.45;1.67;;;23.10;58.90;;;;;;4944823;28;20039;-59
2022/05/20 01:21:05;;;;;;;2.03;1.70;;;23.10;58.90;;;;;;4940608;28;20043;-60
2022/05/20 01:23:33;;;;;;;2.53;1.50;;;23.10;58.90;;;;;;4946163;28;20049;-59
2022/05/20 01:25:59;;;;;;;2.47;1.42;;;23.10;58.80;;;;;;4943112;28;20384;-60
2022/05/20 01:28:27;;;;;;;2.03;1.45;;;23.10;58.80;;;;;;4943854;28;20110;-60
2022/05/20 01:31:13;;;;;;;1.77;1.40;;;23.10;58.80;;;;;;4948344;29;20428;-64
2022/05/20 01:33:46;;;;;;;2.38;1.42;;;23.10;58.70;;;;;;4945720;28;20047;-59
2022/05/20 01:36:17;;;;;;;2.00;1.65;;;23.10;58.80;;;;;;4941258;28;20137;-58
2022/05/20 01:38:43;;;;;;;1.85;1.60;;;23.10;58.70;;;;;;4946768;28;20756;-58
2022/05/20 01:41:12;;;;;;;1.90;1.40;;;23.10;58.70;;;;;;4945607;28;20121;-60
2022/05/20 01:43:57;;;;;;;3.03;1.58;;;23.10;58.70;;;;;;4947364;28;20435;-58
2022/05/20 01:46:33;;;;;;;2.15;1.52;;;23.10;58.70;;;;;;4945657;29;20053;-61
2022/05/20 01:49:27;;;;;;;2.63;1.40;;;23.10;58.60;;;;;;4946048;28;20493;-58
2022/05/20 01:52:02;;;;;;;2.13;1.80;;;23.10;58.50;;;;;;4940762;29;20054;-59
2022/05/20 01:54:39;;;;;;;1.63;1.52;;;23.10;58.60;;;;;;4944087;29;20157;-58
2022/05/20 01:57:26;;;;;;;2.63;1.38;;;23.10;58.50;;;;;;4946938;28;20039;-60
2022/05/20 02:00:04;;;;;;;1.55;1.40;;;23.10;58.50;;;;;;4944233;28;20043;-62
2022/05/20 02:02:38;;;;;;;1.40;1.30;;;23.10;58.60;;;;;;4940543;28;20050;-60
2022/05/20 02:05:18;;;;;;;2.47;1.60;;;23.10;58.50;;;;;;4939101;28;20445;-59
2022/05/20 02:07:47;;;;;;;1.48;1.38;;;23.10;58.40;;;;;;4943915;29;20122;-59
2022/05/20 02:10:22;;;;;;;2.72;1.50;;;23.10;58.40;;;;;;4943475;29;20084;-61
2022/05/20 02:12:52;;;;;;;1.60;1.50;;;23.10;58.40;;;;;;4946190;29;20154;-59
2022/05/20 02:15:27;;;;;;;1.95;1.40;;;23.10;58.40;;;;;;4945462;28;20733;-59
2022/05/20 02:17:58;;;;;;;1.67;1.52;;;23.10;58.30;;;;;;4944736;28;20039;-61
2022/05/20 02:20:36;;;;;;;1.67;1.58;;;23.10;58.40;;;;;;4939847;28;20039;-59
2022/05/20 02:23:09;;;;;;;1.65;1.30;;;23.00;58.30;;;;;;4959531;28;20043;-60
2022/05/20 02:25:39;;;;;;;2.60;1.40;;;23.00;58.30;;;;;;4945679;29;20126;-59
2022/05/20 02:28:12;;;;;;;;;;;23.10;58.30;;;;;;4947202;29;20146;-61
2022/05/20 02:30:39;;;;;;;1.52;1.30;;;23.00;58.10;;;;;;4939162;28;20005;-59
2022/05/20 02:33:17;;;;;;;1.90;1.30;;;23.00;58.40;;;;;;4946539;28;20078;-58
2022/05/20 02:35:44;;;;;;;1.95;1.40;;;23.00;58.40;;;;;;4938589;28;20062;-60
2022/05/20 02:38:14;;;;;;;1.60;1.50;;;23.00;58.30;;;;;;4944194;28;20555;-60
2022/05/20 02:40:43;;;;;;;1.98;1.77;;;23.00;58.30;;;;;;4944454;29;20300;-60
2022/05/20 02:43:09;;;;;;;2.22;1.33;;;23.00;58.20;;;;;;4944560;29;20500;-60
2022/05/20 02:45:35;;;;;;;1.38;1.27;;;23.00;58.20;;;;;;4944475;28;20082;-60
2022/05/20 02:48:01;;;;;;;2.20;1.50;;;23.00;58.20;;;;;;4943575;28;20039;-59
2022/05/20 02:50:26;;;;;;;1.40;1.23;;;23.00;58.10;;;;;;4938139;28;20043;-62
2022/05/20 02:52:52;;;;;;;1.80;1.23;;;23.00;58.00;;;;;;4943364;29;20035;-59
2022/05/20 02:55:18;;;;;;;1.40;1.30;;;23.00;58.00;;;;;;4942825;29;20081;-59
2022/05/20 02:57:44;;;;;;;1.73;1.25;;;23.00;58.00;;;;;;4946472;29;20466;-61
2022/05/20 03:05:54;;;;;;;1.40;1.30;;;23.00;58.00;;;;;;4907047;28;20497;-58
2022/05/20 03:08:20;;;;;;;1.83;1.33;;;23.00;58.00;;;;;;4945438;29;20464;-58
2022/05/20 03:10:46;;;;;;;1.90;1.30;;;23.00;58.00;;;;;;4943338;28;20491;-63
2022/05/20 03:13:12;;;;;;;2.03;1.70;;;23.00;58.00;;;;;;4943055;29;20039;-60
2022/05/20 03:15:39;;;;;;;2.17;1.45;;;23.00;57.90;;;;;;4946228;28;20128;-59
2022/05/20 03:18:06;;;;;;;2.17;1.40;;;23.00;57.90;;;;;;4942965;28;20573;-61
2022/05/20 03:20:33;;;;;;;1.83;1.42;;;23.00;57.90;;;;;;4937239;28;20051;-61
2022/05/20 03:22:58;;;;;;;2.72;1.30;;;23.00;57.90;;;;;;4944748;29;20038;-63
2022/05/20 03:25:24;;;;;;;1.40;1.23;;;23.00;57.90;;;;;;4942404;29;20043;-62
2022/05/20 03:27:50;;;;;;;2.40;1.40;;;23.00;57.80;;;;;;4945351;28;20047;-60
2022/05/20 03:30:17;;;;;;;2.33;1.60;;;23.00;57.70;;;;;;4945198;28;20047;-61
2022/05/20 03:32:42;;;;;;;2.10;1.30;;;23.00;57.70;;;;;;4943920;28;20372;-61
2022/05/20 03:35:09;;;;;;;1.50;1.40;;;23.00;57.70;;;;;;4937037;29;20044;-59
2022/05/20 03:37:35;;;;;;;4.38;1.55;;;23.00;57.70;;;;;;4940409;28;20416;-58
2022/05/20 03:40:00;;;;;;;1.50;1.40;;;23.00;57.60;;;;;;4944743;29;20039;-61
2022/05/20 03:42:26;;;;;;;2.85;1.70;;;23.00;57.60;;;;;;4944442;29;20078;-60
2022/05/20 03:44:53;;;;;;;1.70;1.60;;;23.00;57.70;;;;;;4942390;29;20073;-60
2022/05/20 03:47:19;;;;;;;2.00;1.40;;;23.00;57.70;;;;;;4942883;28;20415;-58
2022/05/20 03:49:45;;;;;;;1.63;1.30;;;23.00;57.50;;;;;;4947843;28;20486;-59
2022/05/20 03:52:10;;;;;;;2.45;1.45;;;22.90;57.40;;;;;;4942242;28;20039;-59
2022/05/20 03:54:36;;;;;;;3.22;1.58;;;23.00;57.40;;;;;;4950102;29;20496;-61
2022/05/20 03:57:03;;;;;;;1.20;1.05;;;23.00;57.50;;;;;;4947089;29;20039;-62
2022/05/20 03:59:30;;;;;;;1.30;1.20;;;23.00;57.40;;;;;;4950552;29;20451;-60
2022/05/20 04:01:58;;;;;;;1.98;1.20;;;22.90;57.30;;;;;;4941522;28;20035;-60
2022/05/20 04:04:32;;;;;;;3.47;1.25;;;23.00;57.40;;;;;;4946414;28;20047;-64
2022/05/20 04:07:07;;;;;;;2.45;1.20;;;22.90;57.30;;;;;;4941054;28;20054;-61
2022/05/20 04:09:32;;;;;;;2.08;1.48;;;23.00;57.30;;;;;;4949474;29;20047;-61
2022/05/20 04:12:00;;;;;;;1.42;1.30;;;22.90;57.30;;;;;;4948433;28;20459;-59
2022/05/20 04:14:27;;;;;;;2.85;1.25;;;23.00;57.30;;;;;;4948732;28;20190;-60
2022/05/20 04:16:57;;;;;;;2.85;1.33;;;23.00;57.30;;;;;;4946920;28;20353;-59
2022/05/20 04:19:28;;;;;;;1.67;1.20;;;22.90;57.20;;;;;;4948691;28;20114;-60
2022/05/20 04:21:58;;;;;;;2.38;1.40;;;22.90;57.10;;;;;;4937841;28;20126;-63
2022/05/20 04:24:24;;;;;;;2.35;1.40;;;22.90;57.10;;;;;;4948228;28;20043;-58
2022/05/20 04:26:49;;;;;;;1.90;1.40;;;22.90;57.10;;;;;;4947399;28;20098;-59
2022/05/20 04:29:15;;;;;;;1.92;1.30;;;22.90;57.10;;;;;;4948620;29;20057;-58
2022/05/20 04:31:44;;;;;;;2.15;1.27;;;22.90;57.10;;;;;;4946554;28;20126;-58
2022/05/20 04:34:10;;;;;;;2.15;1.30;;;22.90;57.10;;;;;;4948325;28;20031;-60
2022/05/20 04:36:36;;;;;;;2.95;1.67;;;22.90;57.10;;;;;;4942431;28;20051;-60
2022/05/20 04:39:02;;;;;;;2.75;1.20;;;22.90;57.00;;;;;;4950376;28;20506;-60
2022/05/20 04:46:59;;;;;;;2.15;1.17;;;22.90;57.00;;;;;;4945534;28;20145;-62
2022/05/20 04:49:27;;;;;;;1.40;1.30;;;22.90;57.00;;;;;;4947168;28;20039;-60
2022/05/20 04:51:52;;;;;;;1.85;1.50;;;22.90;56.90;;;;;;4941222;28;20126;-59
2022/05/20 04:57:03;;;;;;;2.15;1.30;;;22.90;56.90;;;;;;4967157;28;20470;-61
2022/05/20 04:59:29;;;;;;;2.15;1.70;;;22.90;56.70;;;;;;4968697;28;20069;-60
2022/05/20 05:01:54;;;;;;;3.03;1.75;;;22.90;56.70;;;;;;4954493;28;20046;-59
2022/05/20 05:04:20;;;;;;;2.65;1.50;;;22.90;56.70;;;;;;4967614;28;20130;-60
2022/05/20 05:06:47;;;;;;;2.38;1.63;;;22.90;56.50;;;;;;4960397;28;20070;-59
2022/05/20 05:09:13;;;;;;;3.60;2.13;;;22.80;56.20;;;;;;4967380;28;20050;-63
2022/05/20 05:11:40;;;;;;;2.60;1.77;;;22.80;55.90;;;;;;4952514;28;20073;-60
2022/05/20 05:14:12;;;;;;;3.58;2.28;;;22.90;56.10;;;;;;4960643;28;20062;-61
2022/05/20 05:16:38;;;;;;;3.30;2.50;;;22.80;56.00;;;;;;4964317;28;20046;-60
2022/05/20 05:19:03;;;;;;;4.38;2.75;;;22.90;56.00;;;;;;4962689;28;20513;-58
2022/05/20 05:21:29;;;;;;;2.30;2.10;;;22.90;55.80;;;;;;4965309;28;20074;-61
2022/05/20 05:23:55;;;;;;;5.20;2.20;;;22.90;55.60;;;;;;4967123;28;20042;-60
2022/05/20 05:26:22;;;;;;;4.15;2.45;;;22.90;55.40;;;;;;4963793;28;20081;-60
2022/05/20 05:28:47;;;;;;;5.70;2.70;;;22.90;55.40;;;;;;4964689;28;20078;-61
2022/05/20 05:31:13;;;;;;;3.70;2.53;;;22.90;55.10;;;;;;4965349;28;20466;-59
2022/05/20 05:33:38;;;;;;;5.90;4.10;;;22.90;55.00;;;;;;4957507;28;20046;-60
2022/05/20 05:36:04;;;;;;;5.38;3.00;;;22.90;54.80;;;;;;4964429;28;20094;-60
2022/05/20 05:38:30;;;;;;;5.20;3.30;;;22.80;54.70;;;;;;4963457;28;20094;-60
2022/05/20 05:40:55;;;;;;;4.00;3.60;;;22.80;54.60;;;;;;4963740;28;20045;-61
2022/05/20 05:43:22;;;;;;;3.03;2.72;;;22.90;54.50;;;;;;4965883;28;20049;-61
2022/05/20 05:45:47;;;;;;;5.18;3.67;;;22.90;54.30;;;;;;4947261;28;20047;-60
2022/05/20 05:48:15;;;;;;;4.03;3.63;;;22.80;54.10;;;;;;4965112;28;20089;-62
2022/05/20 05:50:41;;;;;;;5.57;3.72;;;22.80;54.10;;;;;;4947291;28;20043;-61
2022/05/20 05:53:16;;;;;;;4.25;3.55;;;22.80;54.00;;;;;;4964507;28;20501;-63
2022/05/20 05:55:44;;;;;;;5.47;3.92;;;22.80;53.70;;;;;;4963238;28;20057;-60
2022/05/20 05:58:10;;;;;;;7.40;3.53;;;22.80;53.70;;;;;;4965070;28;20031;-61
2022/05/20 06:00:36;;;;;;;5.50;3.40;;;22.70;53.90;;;;;;4965538;28;20043;-62
2022/05/20 06:03:02;;;;;;;4.55;3.28;;;22.80;54.00;;;;;;4965402;28;20031;-58
2022/05/20 06:05:28;;;;;;;5.70;3.70;;;22.80;54.00;;;;;;4965380;28;20491;-59
2022/05/20 06:07:55;;;;;;;5.90;3.47;;;22.80;54.20;;;;;;4964214;28;20039;-59
2022/05/20 06:10:20;;;;;;;6.68;3.47;;;22.80;54.10;;;;;;4964779;28;20046;-62
2022/05/20 06:12:47;;;;;;;4.90;3.15;;;22.80;54.10;;;;;;4965190;28;20665;-63
2022/05/20 06:15:17;;;;;;;4.75;2.90;;;22.80;54.10;;;;;;4961957;28;20518;-60
2022/05/20 06:17:43;;;;;;;6.23;3.20;;;22.80;54.20;;;;;;4948403;28;20038;-58
2022/05/20 06:20:10;;;;;;;7.05;3.40;;;22.80;54.20;;;;;;4962516;28;20302;-59
2022/05/20 06:22:36;;;;;;;5.22;3.38;;;22.80;54.20;;;;;;4961791;28;20141;-62
2022/05/20 06:25:02;;;;;;;5.05;3.58;;;22.80;54.00;;;;;;4945665;28;20286;-65
2022/05/20 06:27:28;;;;;;;4.50;3.45;;;22.80;53.70;;;;;;4961103;28;20039;-63
2022/05/20 06:29:53;;;;;;;5.38;4.18;;;22.80;53.50;;;;;;4963152;28;20403;-62
2022/05/20 06:32:19;;;;;;;7.13;4.13;;;22.80;53.30;;;;;;4955649;28;20046;-63
2022/05/20 06:40:17;;;;;;;7.50;5.57;;;22.60;53.50;;;;;;4965443;28;20125;-63
2022/05/20 06:42:43;;;;;;;7.75;5.53;;;22.60;52.70;;;;;;4965517;28;20043;-62
2022/05/20 06:45:11;;;;;;;7.93;6.00;;;22.60;52.70;;;;;;4964021;28;20042;-63
2022/05/20 06:47:36;;;;;;;7.57;6.47;;;22.60;52.70;;;;;;4965222;28;20113;-64
2022/05/20 06:50:03;;;;;;;8.95;6.78;;;22.50;52.50;;;;;;4965120;28;20039;-62
2022/05/20 06:52:29;;;;;;;8.00;6.63;;;22.50;52.40;;;;;;4962769;28;20132;-63
2022/05/20 06:54:54;;;;;;;8.45;5.53;;;22.50;52.20;;;;;;4961344;28;20042;-62
2022/05/20 06:57:21;;;;;;;8.07;5.50;;;22.40;52.20;;;;;;4943183;28;20055;-62
2022/05/20 06:59:47;;;;;;;6.10;5.50;;;22.40;52.10;;;;;;4954874;28;20039;-62
2022/05/20 07:02:13;;;;;;;7.93;5.53;;;22.40;52.00;;;;;;4959926;28;20283;-62
2022/05/20 07:04:39;;;;;;;6.90;5.05;;;22.40;52.00;;;;;;4940025;28;20062;-65
2022/05/20 07:07:06;;;;;;;6.75;5.70;;;22.40;51.90;;;;;;4959664;28;20046;-64
2022/05/20 07:09:32;;;;;;;6.47;5.40;;;22.40;51.60;;;;;;4959998;28;20122;-64
2022/05/20 07:11:58;;;;;;;8.82;5.40;;;22.40;51.50;;;;;;4960227;28;20050;-62
2022/05/20 07:14:24;;;;;;;6.78;5.88;;;22.40;51.50;;;;;;4943347;28;20046;-63
2022/05/20 07:16:50;;;;;;;10.63;6.68;;;22.40;51.70;;;;;;4960366;28;20660;-62
2022/05/20 07:19:16;;;;;;;8.63;5.43;;;22.30;51.80;;;;;;4959048;28;20058;-61
2022/05/20 07:21:41;;;;;;;10.65;4.35;;;22.30;52.00;;;;;;4957849;28;22158;-61
2022/05/20 07:24:07;;;;;;;5.60;4.00;;;22.30;52.10;;;;;;4961085;28;20039;-64
2022/05/20 07:26:34;;;;;;;6.35;3.83;;;22.30;52.20;;;;;;4958961;28;20047;-63
2022/05/20 07:29:00;;;;;;;5.25;3.65;;;22.40;52.40;;;;;;4954788;28;20911;-62
2022/05/20 07:31:26;;;;;;;4.15;3.47;;;22.40;52.50;;;;;;4959054;28;20073;-61
2022/05/20 07:33:52;;;;;;;7.28;3.45;;;22.40;52.40;;;;;;4956876;28;20503;-63
2022/05/20 07:36:18;;;;;;;6.65;4.25;;;22.40;52.40;;;;;;4944873;28;20510;-63
2022/05/20 07:38:44;;;;;;;5.25;3.95;;;22.40;52.60;;;;;;4941992;28;20045;-64
2022/05/20 07:41:12;;;;;;;6.28;4.10;;;22.50;52.70;;;;;;4959688;28;20042;-62
2022/05/20 07:43:38;;;;;;;4.28;3.88;;;22.50;52.70;;;;;;4956985;28;20035;-62
2022/05/20 07:46:04;;;;;;;5.88;4.20;;;22.50;52.80;;;;;;4959719;28;20041;-61
2022/05/20 07:48:30;;;;;;;7.75;4.07;;;22.50;52.90;;;;;;4961641;28;20125;-61
2022/05/20 07:50:59;;;;;;;7.45;3.70;;;22.50;52.20;;;;;;4954749;28;20113;-62
2022/05/20 07:53:33;;;;;;;6.25;3.13;;;22.50;52.60;;;;;;4957416;28;20043;-63
2022/05/20 07:56:09;;;;;;;5.55;3.05;;;22.50;53.50;;;;;;4961027;28;20126;-62
2022/05/20 07:58:40;;;;;;;4.97;3.10;;;22.60;53.00;;;;;;4956554;28;20145;-63
2022/05/20 08:01:07;;;;;;;4.45;2.60;;;22.50;53.10;;;;;;4959461;28;20035;-61
2022/05/20 08:06:19;;;;;;;6.25;2.80;;;22.60;53.40;;;;;;4965327;28;20064;-64
2022/05/20 08:08:45;;;;;;;5.55;2.80;;;22.60;53.60;;;;;;4963826;28;20487;-62
2022/05/20 08:11:11;;;;;;;5.65;2.47;;;22.60;53.90;;;;;;4963170;28;20041;-62
2022/05/20 08:13:36;;;;;;;9.18;2.67;;;22.60;54.40;;;;;;4958193;28;20360;-62
2022/05/20 08:16:02;;;;;;;3.95;2.20;;;22.70;54.80;;;;;;4958599;28;20039;-64
2022/05/20 08:18:28;;;;;;;4.70;2.42;;;22.70;55.00;;;;;;4954372;28;21088;-64
2022/05/20 08:20:55;;;;;;;5.30;2.67;;;22.70;55.10;;;;;;4964164;28;20035;-61
2022/05/20 08:23:20;;;;;;;6.18;2.90;;;22.70;55.20;;;;;;4961084;28;20896;-64
2022/05/20 08:25:46;;;;;;;4.82;2.33;;;22.70;55.30;;;;;;4961110;28;20034;-61
2022/05/20 08:28:12;;;;;;;5.63;2.05;;;22.70;55.20;;;;;;4951452;28;20085;-63
2022/05/20 08:30:37;;;;;;;4.90;2.10;;;22.70;55.20;;;;;;4961566;28;20050;-62
2022/05/20 08:33:03;;;;;;;3.08;2.00;;;22.70;55.30;;;;;;4962682;28;20049;-61
2022/05/20 08:35:29;;;;;;;5.32;2.10;;;22.70;55.10;;;;;;4957513;28;20452;-61
2022/05/20 08:37:55;;;;;;;2.47;2.10;;;22.70;54.70;;;;;;4963785;28;20319;-63
2022/05/20 08:40:29;;;;;;;4.70;2.00;;;22.70;54.70;;;;;;4961884;28;20106;-65
2022/05/20 08:42:57;;;;;;;3.88;1.88;;;22.70;54.80;;;;;;4965060;28;20045;-63
2022/05/20 08:45:26;;;;;;;4.10;2.13;;;22.70;54.80;;;;;;4966491;28;20435;-62
2022/05/20 08:47:53;;;;;;;3.78;2.20;;;22.70;55.00;;;;;;4966655;28;20054;-63
2022/05/20 08:50:24;;;;;;;4.18;1.80;;;22.70;55.20;;;;;;4965854;28;20416;-63
2022/05/20 08:52:53;;;;;;;3.67;2.08;;;22.70;55.00;;;;;;4954789;28;20031;-65
2022/05/20 08:55:19;;;;;;;4.15;2.75;;;22.70;54.90;;;;;;4958802;28;20689;-63
2022/05/20 08:57:53;;;;;;;6.05;4.07;;;22.70;54.60;;;;;;4941724;28;20162;-61
2022/05/20 09:00:19;;;;;;;4.60;2.70;;;22.70;53.20;;;;;;4958220;28;20043;-63
2022/05/20 09:02:45;;;;;;;5.82;3.55;;;22.70;53.40;;;;;;4967050;28;20214;-62
2022/05/20 09:05:25;;;;;;;4.30;3.47;;;22.60;52.70;;;;;;4946919;28;20050;-61
2022/05/20 09:08:12;;;;;;;3.30;3.00;;;22.60;52.60;;;;;;4966055;28;20078;-63
2022/05/20 09:10:49;;;;;;;49.95;29.73;;;22.60;52.90;;;;;;4959326;28;20046;-64
2022/05/20 09:13:22;;;;;;;24.80;15.35;;;22.60;53.30;;;;;;4946216;28;20054;-61
2022/05/20 09:16:04;;;;;;;29.40;18.17;;;22.60;53.30;;;;;;4967603;28;20521;-61
2022/05/20 09:18:40;;;;;;;17.83;10.77;;;22.60;53.50;;;;;;4966549;28;20049;-63
2022/05/20 09:21:15;;;;;;;13.25;7.50;;;22.60;53.10;;;;;;4948637;28;20129;-63
2022/05/20 09:23:53;;;;;;;22.88;7.95;;;22.70;52.60;;;;;;4967549;28;20120;-62
2022/05/20 09:26:24;;;;;;;12.55;7.43;;;22.70;52.40;;;;;;4966585;28;20081;-61
2022/05/20 09:29:11;;;;;;;12.13;6.97;;;22.70;52.10;;;;;;4967287;28;20039;-63
2022/05/20 09:31:50;;;;;;;9.50;5.65;;;22.60;51.80;;;;;;4966112;28;20039;-61
2022/05/20 09:34:27;;;;;;;9.77;5.20;;;22.60;51.50;;;;;;4968177;28;20483;-63
2022/05/20 09:37:00;;;;;;;5.60;4.60;;;22.60;51.20;;;;;;4968939;28;20163;-61
2022/05/20 09:39:38;;;;;;;7.22;4.53;;;22.50;51.10;;;;;;4965293;28;20137;-62
2022/05/20 09:42:23;;;;;;;10.82;5.03;;;22.60;50.80;;;;;;4967267;28;20150;-61
2022/05/20 09:44:55;;;;;;;6.00;4.13;;;22.50;50.30;;;;;;4966865;28;20046;-61
2022/05/20 09:47:32;;;;;;;6.50;4.50;;;22.50;50.90;;;;;;4956618;28;20054;-62
2022/05/20 09:50:05;;;;;;;5.57;3.70;;;22.50;51.10;;;;;;4957600;28;20760;-63
2022/05/20 09:52:41;;;;;;;4.80;3.58;;;22.50;51.10;;;;;;4968443;28;20522;-63
2022/05/20 09:55:27;;;;;;;6.60;3.97;;;22.50;51.10;;;;;;4966914;28;20050;-63
2022/05/20 09:57:56;;;;;;;6.85;4.07;;;22.50;50.60;;;;;;4965611;28;20479;-62
2022/05/20 10:00:26;;;;;;;4.30;3.63;;;22.50;50.10;;;;;;4966840;28;20088;-63
2022/05/20 10:03:22;;;;;;;6.10;3.33;;;22.50;50.10;;;;;;4964705;28;20034;-62
2022/05/20 10:06:17;;;;;;;4.63;2.90;;;22.50;50.50;;;;;;4947342;28;20384;-62
2022/05/20 10:08:50;;;;;;;4.78;3.17;;;22.50;50.80;;;;;;4954900;28;20141;-62
2022/05/20 10:11:35;;;;;;;4.47;2.95;;;22.50;50.80;;;;;;4965741;28;20049;-62
2022/05/20 10:14:13;;;;;;;5.38;3.15;;;22.50;50.90;;;;;;4965735;28;20166;-64
2022/05/20 10:17:05;;;;;;;7.43;3.40;;;22.50;51.00;;;;;;4963248;28;20049;-62
2022/05/20 10:19:50;;;;;;;5.38;3.08;;;22.50;50.80;;;;;;4958728;28;20475;-64
2022/05/20 10:22:41;;;;;;;3.58;3.28;;;22.50;51.20;;;;;;4966611;28;20580;-63
2022/05/20 10:25:31;;;;;;;5.07;2.75;;;22.50;51.00;;;;;;4959616;28;20085;-62
2022/05/20 10:28:12;;;;;;;4.30;2.30;;;22.50;51.20;;;;;;4929666;28;20126;-61
2022/05/20 10:33:35;;;;;;;3.45;2.35;;;22.50;51.50;;;;;;4966507;28;20072;-61
2022/05/20 10:36:23;;;;;;;2.92;2.50;;;22.50;51.50;;;;;;4958882;28;20047;-64
2022/05/20 10:38:59;;;;;;;3.05;2.17;;;22.60;51.60;;;;;;4966372;28;20129;-64
2022/05/20 10:41:46;;;;;;;4.10;2.55;;;22.60;51.70;;;;;;4967445;28;20039;-62
2022/05/20 10:50:28;;;;;;;;;;;22.60;52.10;;;;;;4963968;28;20051;-61
2022/05/20 10:53:13;;;;;;;4.28;2.00;;;22.60;52.40;;;;;;4965416;28;19946;-62
2022/05/20 10:55:56;;;;;;;3.92;2.08;;;22.60;52.40;;;;;;4965956;28;20051;-62
2022/05/20 10:59:09;;;;;;;3.65;1.77;;;22.60;52.40;;;;;;4966179;28;20046;-61
2022/05/20 11:01:57;;;;;;;3.47;1.92;;;22.60;52.50;;;;;;4890832;29;20093;-62
2022/05/20 11:04:42;;;;;;;2.92;1.73;;;22.60;52.60;;;;;;4964929;28;20789;-62
2022/05/20 11:07:14;;;;;;;3.38;1.90;;;22.60;52.50;;;;;;4966385;28;20100;-62
2022/05/20 11:10:18;;;;;;;2.53;1.40;;;22.60;52.50;;;;;;4967088;28;20057;-62
2022/05/20 11:13:02;;;;;;;2.67;1.77;;;22.70;52.50;;;;;;4949443;28;20137;-63
2022/05/20 11:15:53;;;;;;;3.70;1.45;;;22.70;52.60;;;;;;4948687;28;20043;-62
2022/05/20 11:18:47;;;;;;;1.88;1.45;;;22.70;52.50;;;;;;4965135;28;20459;-62
2022/05/20 11:21:37;;;;;;;3.22;1.40;;;22.70;52.50;;;;;;4967322;28;20043;-63
2022/05/20 11:24:38;;;;;;;3.10;1.50;;;22.70;52.50;;;;;;4966023;28;20069;-64
2022/05/20 11:27:26;;;;;;;2.75;1.40;;;22.70;52.50;;;;;;4952478;28;20047;-63
2022/05/20 11:30:10;;;;;;;3.63;1.58;;;22.70;52.50;;;;;;4964488;28;20061;-62
2022/05/20 11:33:12;;;;;;;1.63;1.50;;;22.70;52.40;;;;;;4965553;28;20057;-61
2022/05/20 11:36:03;;;;;;;2.13;1.27;;;22.70;52.40;;;;;;4964847;28;20522;-62
2022/05/20 11:38:50;;;;;;;4.10;1.60;;;22.70;52.40;;;;;;4962803;28;20058;-62
2022/05/20 11:41:53;;;;;;;2.53;1.30;;;22.70;52.30;;;;;;4963682;28;20067;-63
2022/05/20 11:44:43;;;;;;;2.33;1.50;;;22.70;52.30;;;;;;4965298;28;20066;-63
2022/05/20 11:47:27;;;;;;;2.47;1.60;;;22.70;52.30;;;;;;4948592;28;20035;-63
2022/05/20 11:50:31;;;;;;;3.53;1.30;;;22.70;52.40;;;;;;4947828;28;20443;-61
2022/05/20 11:53:37;;;;;;;2.97;1.50;;;22.70;52.40;;;;;;4965380;28;20077;-62
2022/05/20 11:56:14;;;;;;;1.60;1.45;;;22.70;52.40;;;;;;4946891;28;20035;-65
2022/05/20 11:58:56;;;;;;;1.83;1.60;;;22.70;52.40;;;;;;4965078;28;20391;-62
2022/05/20 12:01:24;;;;;;;3.05;1.27;;;22.70;52.40;;;;;;4964273;28;20047;-63
2022/05/20 12:04:09;;;;;;;5.45;1.70;;;22.70;52.30;;;;;;4964581;28;20062;-61
2022/05/20 12:06:54;;;;;;;2.67;1.63;;;22.70;52.30;;;;;;4965880;28;20039;-61
2022/05/20 12:09:36;;;;;;;2.03;1.27;;;22.70;52.30;;;;;;4964906;28;20030;-64
2022/05/20 12:12:16;;;;;;;2.25;1.58;;;22.70;52.20;;;;;;4968700;28;20874;-63
2022/05/20 12:14:56;;;;;;;1.77;1.27;;;22.70;52.10;;;;;;4968704;28;20046;-63
2022/05/20 12:17:34;;;;;;;1.55;1.30;;;22.70;52.00;;;;;;4969658;28;20492;-62
2022/05/20 12:26:07;;;;;;;2.50;1.30;;;22.70;51.70;;;;;;4962331;28;20109;-63
2022/05/20 12:28:36;;;;;;;1.42;1.25;;;22.70;51.70;;;;;;4968240;28;20443;-62
2022/05/20 12:31:31;;;;;;;1.35;1.23;;;22.70;51.60;;;;;;4969747;28;20030;-61
2022/05/20 12:34:05;;;;;;;1.40;1.30;;;22.70;51.30;;;;;;4950914;28;20606;-64
2022/05/20 12:36:38;;;;;;;2.30;1.35;;;22.70;51.30;;;;;;4964370;28;20055;-62
2022/05/20 12:39:07;;;;;;;1.10;1.02;;;22.70;51.10;;;;;;4968766;28;20043;-63
2022/05/20 12:42:00;;;;;;;2.58;1.38;;;22.70;50.90;;;;;;4967314;28;20047;-62
2022/05/20 12:44:35;;;;;;;1.20;1.10;;;22.70;50.60;;;;;;4963387;28;20059;-64
2022/05/20 12:47:22;;;;;;;1.40;1.30;;;22.70;50.70;;;;;;4966833;28;20121;-62
2022/05/20 12:49:48;;;;;;;1.25;1.00;;;22.70;50.50;;;;;;4968170;28;20057;-62
2022/05/20 12:52:54;;;;;;;2.22;1.30;;;22.70;50.50;;;;;;4966534;28;20039;-62
2022/05/20 12:55:37;;;;;;;1.63;1.33;;;22.70;50.40;;;;;;4967231;28;20055;-63
2022/05/20 12:58:05;;;;;;;1.27;1.02;;;22.70;50.30;;;;;;4957083;28;20100;-63
2022/05/20 13:00:41;;;;;;;1.33;1.00;;;22.70;50.30;;;;;;4967945;28;20391;-63
2022/05/20 13:03:15;;;;;;;2.35;1.35;;;22.70;51.00;;;;;;4969324;28;20063;-61
2022/05/20 13:05:52;;;;;;;3.75;1.15;;;22.70;50.20;;;;;;4967719;28;20074;-62
2022/05/20 13:08:27;;;;;;;1.48;1.15;;;22.70;50.10;;;;;;4966535;28;20066;-62
2022/05/20 13:10:53;;;;;;;2.00;1.38;;;22.70;50.10;;;;;;4968855;28;20047;-62
2022/05/20 13:13:28;;;;;;;2.20;1.20;;;22.70;50.10;;;;;;4968557;28;20499;-63
2022/05/20 13:16:00;;;;;;;2.33;1.25;;;22.70;50.10;;;;;;4966901;28;20089;-62
2022/05/20 13:18:34;;;;;;;2.38;1.17;;;22.70;50.10;;;;;;4966793;28;20043;-61
2022/05/20 13:21:07;;;;;;;1.83;1.20;;;22.70;50.10;;;;;;4966019;28;20031;-62
2022/05/20 13:23:36;;;;;;;1.75;1.20;;;22.70;50.90;;;;;;4965754;28;20052;-64
2022/05/20 13:26:03;;;;;;;2.65;1.30;;;22.70;50.00;;;;;;4967551;28;20047;-61
2022/05/20 13:28:31;;;;;;;1.50;1.40;;;22.70;50.10;;;;;;4967489;28;20406;-62
2022/05/20 13:31:12;;;;;;;1.25;1.10;;;22.70;50.00;;;;;;4947659;28;20055;-63
2022/05/20 13:33:42;;;;;;;1.35;1.25;;;22.70;49.90;;;;;;4966982;28;20038;-62
2022/05/20 13:36:12;;;;;;;1.65;1.50;;;22.70;50.10;;;;;;4965658;28;20113;-64
2022/05/20 13:38:51;;;;;;;1.73;1.10;;;22.70;50.10;;;;;;4966393;28;20134;-62
2022/05/20 13:41:21;;;;;;;2.47;1.52;;;22.70;50.10;;;;;;4954561;28;20511;-62
2022/05/20 13:43:50;;;;;;;2.87;1.23;;;22.70;50.10;;;;;;4964667;28;20047;-61
2022/05/20 13:49:16;;;;;;;2.75;1.50;;;22.70;50.70;;;;;;4966866;28;20062;-62
2022/05/20 13:51:59;;;;;;;3.55;1.55;;;22.60;51.20;;;;;;4965596;28;20046;-63
2022/05/20 13:54:32;;;;;;;4.65;1.77;;;22.70;51.70;;;;;;4966021;28;20031;-62